sensor_id;sensor_type;location;lat;lon;timestamp;P1;durP1;ratioP1;P2;durP2;ratioP2
62584;SDS011;48643;51.670;5.808;2023-05-10T00:00:21;5.15;;;3.70;;
62584;SDS011;48643;51.670;5.808;2023-05-10T00:02:49;4.82;;;3.47;;
62584;SDS011;48643;51.670;5.808;2023-05-10T00:05:17;5.22;;;3.75;;
62584;SDS011;48643;51.670;5.808;2023-05-10T00:07:43;5.35;;;3.85;;
62584;SDS011;48643;51.670;5.808;2023-05-10T00:10:13;5.25;;;3.67;;
62584;SDS011;48643;51.670;5.808;2023-05-10T00:12:40;4.70;;;3.58;;
62584;SDS011;48643;51.670;5.808;2023-05-10T00:15:08;5.45;;;3.65;;
62584;SDS011;48643;51.670;5.808;2023-05-10T00:17:35;5.30;;;3.97;;
62584;SDS011;48643;51.670;5.808;2023-05-10T00:20:02;5.68;;;4.03;;
62584;SDS011;48643;51.670;5.808;2023-05-10T00:22:31;6.40;;;3.67;;
62584;SDS011;48643;51.670;5.808;2023-05-10T00:24:58;5.05;;;3.55;;
62584;SDS011;48643;51.670;5.808;2023-05-10T00:27:25;5.15;;;3.90;;
62584;SDS011;48643;51.670;5.808;2023-05-10T00:29:52;5.40;;;3.58;;
62584;SDS011;48643;51.670;5.808;2023-05-10T00:32:19;5.47;;;4.00;;
62584;SDS011;48643;51.670;5.808;2023-05-10T00:34:47;5.40;;;3.63;;
62584;SDS011;48643;51.670;5.808;2023-05-10T00:37:13;7.60;;;3.92;;
62584;SDS011;48643;51.670;5.808;2023-05-10T00:39:40;4.68;;;3.47;;
62584;SDS011;48643;51.670;5.808;2023-05-10T00:42:07;6.43;;;3.60;;
62584;SDS011;48643;51.670;5.808;2023-05-10T00:44:34;5.03;;;3.70;;
62584;SDS011;48643;51.670;5.808;2023-05-10T00:47:01;5.07;;;3.70;;
62584;SDS011;48643;51.670;5.808;2023-05-10T00:49:27;5.07;;;3.78;;
62584;SDS011;48643;51.670;5.808;2023-05-10T00:51:54;8.63;;;3.97;;
62584;SDS011;48643;51.670;5.808;2023-05-10T00:54:21;5.32;;;3.75;;
62584;SDS011;48643;51.670;5.808;2023-05-10T00:56:50;5.97;;;4.10;;
62584;SDS011;48643;51.670;5.808;2023-05-10T00:59:18;5.30;;;4.10;;
62584;SDS011;48643;51.670;5.808;2023-05-10T01:01:45;5.70;;;4.20;;
62584;SDS011;48643;51.670;5.808;2023-05-10T01:04:13;5.72;;;4.00;;
62584;SDS011;48643;51.670;5.808;2023-05-10T01:06:41;5.10;;;3.85;;
62584;SDS011;48643;51.670;5.808;2023-05-10T01:09:08;7.32;;;4.07;;
62584;SDS011;48643;51.670;5.808;2023-05-10T01:11:36;6.20;;;4.00;;
62584;SDS011;48643;51.670;5.808;2023-05-10T01:14:04;5.93;;;4.20;;
62584;SDS011;48643;51.670;5.808;2023-05-10T01:16:32;4.97;;;3.80;;
62584;SDS011;48643;51.670;5.808;2023-05-10T01:19:01;6.40;;;4.45;;
62584;SDS011;48643;51.670;5.808;2023-05-10T01:35:17;6.90;;;4.47;;
62584;SDS011;48643;51.670;5.808;2023-05-10T01:40:45;8.60;;;4.57;;
62584;SDS011;48643;51.670;5.808;2023-05-10T01:43:26;7.18;;;4.78;;
62584;SDS011;48643;51.670;5.808;2023-05-10T01:48:30;7.55;;;4.90;;
62584;SDS011;48643;51.670;5.808;2023-05-10T01:50:59;8.43;;;5.50;;
62584;SDS011;48643;51.670;5.808;2023-05-10T01:53:26;6.65;;;4.57;;
62584;SDS011;48643;51.670;5.808;2023-05-10T01:55:53;8.60;;;5.15;;
62584;SDS011;48643;51.670;5.808;2023-05-10T01:58:29;9.05;;;4.72;;
62584;SDS011;48643;51.670;5.808;2023-05-10T02:00:58;7.32;;;4.88;;
62584;SDS011;48643;51.670;5.808;2023-05-10T02:03:27;8.05;;;5.25;;
62584;SDS011;48643;51.670;5.808;2023-05-10T02:05:56;8.68;;;4.97;;
62584;SDS011;48643;51.670;5.808;2023-05-10T02:08:24;7.93;;;5.07;;
62584;SDS011;48643;51.670;5.808;2023-05-10T02:10:53;8.60;;;4.95;;
62584;SDS011;48643;51.670;5.808;2023-05-10T02:13:23;7.78;;;4.88;;
62584;SDS011;48643;51.670;5.808;2023-05-10T02:15:51;9.30;;;5.25;;
62584;SDS011;48643;51.670;5.808;2023-05-10T02:18:17;7.65;;;5.40;;
62584;SDS011;48643;51.670;5.808;2023-05-10T02:20:45;7.78;;;5.35;;
62584;SDS011;48643;51.670;5.808;2023-05-10T02:23:14;9.50;;;5.78;;
62584;SDS011;48643;51.670;5.808;2023-05-10T02:25:43;8.82;;;5.50;;
62584;SDS011;48643;51.670;5.808;2023-05-10T02:28:10;9.07;;;5.45;;
62584;SDS011;48643;51.670;5.808;2023-05-10T02:30:38;12.07;;;6.20;;
62584;SDS011;48643;51.670;5.808;2023-05-10T02:33:05;10.05;;;5.80;;
62584;SDS011;48643;51.670;5.808;2023-05-10T02:35:32;8.45;;;5.65;;
62584;SDS011;48643;51.670;5.808;2023-05-10T02:38:00;11.05;;;6.55;;
62584;SDS011;48643;51.670;5.808;2023-05-10T02:40:28;9.82;;;6.20;;
62584;SDS011;48643;51.670;5.808;2023-05-10T02:42:56;13.13;;;7.13;;
62584;SDS011;48643;51.670;5.808;2023-05-10T02:45:24;11.20;;;7.18;;
62584;SDS011;48643;51.670;5.808;2023-05-10T02:47:54;12.32;;;8.00;;
62584;SDS011;48643;51.670;5.808;2023-05-10T02:50:21;14.35;;;7.85;;
62584;SDS011;48643;51.670;5.808;2023-05-10T02:52:52;14.40;;;8.18;;
62584;SDS011;48643;51.670;5.808;2023-05-10T02:55:24;14.52;;;8.35;;
62584;SDS011;48643;51.670;5.808;2023-05-10T02:57:54;13.65;;;7.55;;
62584;SDS011;48643;51.670;5.808;2023-05-10T03:00:25;14.68;;;8.65;;
62584;SDS011;48643;51.670;5.808;2023-05-10T03:02:52;11.88;;;7.22;;
62584;SDS011;48643;51.670;5.808;2023-05-10T03:05:19;12.48;;;7.55;;
62584;SDS011;48643;51.670;5.808;2023-05-10T03:07:46;12.95;;;7.38;;
62584;SDS011;48643;51.670;5.808;2023-05-10T03:10:13;14.65;;;8.00;;
62584;SDS011;48643;51.670;5.808;2023-05-10T03:18:15;14.43;;;8.02;;
62584;SDS011;48643;51.670;5.808;2023-05-10T03:20:48;16.38;;;8.52;;
62584;SDS011;48643;51.670;5.808;2023-05-10T03:25:56;16.08;;;8.90;;
62584;SDS011;48643;51.670;5.808;2023-05-10T03:28:24;17.50;;;8.73;;
62584;SDS011;48643;51.670;5.808;2023-05-10T03:30:52;15.65;;;8.93;;
62584;SDS011;48643;51.670;5.808;2023-05-10T03:33:20;16.00;;;8.90;;
62584;SDS011;48643;51.670;5.808;2023-05-10T03:35:47;16.90;;;9.32;;
62584;SDS011;48643;51.670;5.808;2023-05-10T03:38:14;18.40;;;9.68;;
62584;SDS011;48643;51.670;5.808;2023-05-10T03:40:41;17.42;;;9.48;;
62584;SDS011;48643;51.670;5.808;2023-05-10T03:43:08;16.77;;;9.77;;
62584;SDS011;48643;51.670;5.808;2023-05-10T03:45:35;17.98;;;9.68;;
62584;SDS011;48643;51.670;5.808;2023-05-10T03:48:03;14.90;;;9.45;;
62584;SDS011;48643;51.670;5.808;2023-05-10T03:50:29;16.83;;;9.70;;
62584;SDS011;48643;51.670;5.808;2023-05-10T03:52:56;15.52;;;9.55;;
62584;SDS011;48643;51.670;5.808;2023-05-10T03:55:23;16.73;;;9.88;;
62584;SDS011;48643;51.670;5.808;2023-05-10T03:57:50;18.17;;;9.80;;
62584;SDS011;48643;51.670;5.808;2023-05-10T04:00:17;17.15;;;9.80;;
62584;SDS011;48643;51.670;5.808;2023-05-10T04:02:48;17.33;;;9.63;;
62584;SDS011;48643;51.670;5.808;2023-05-10T04:05:18;18.10;;;10.35;;
62584;SDS011;48643;51.670;5.808;2023-05-10T04:07:44;18.98;;;10.85;;
62584;SDS011;48643;51.670;5.808;2023-05-10T04:10:13;17.40;;;10.15;;
62584;SDS011;48643;51.670;5.808;2023-05-10T04:12:40;18.63;;;10.27;;
62584;SDS011;48643;51.670;5.808;2023-05-10T04:15:07;16.85;;;10.10;;
62584;SDS011;48643;51.670;5.808;2023-05-10T04:17:34;20.90;;;10.63;;
62584;SDS011;48643;51.670;5.808;2023-05-10T04:20:01;19.20;;;10.57;;
62584;SDS011;48643;51.670;5.808;2023-05-10T04:22:29;19.83;;;10.80;;
62584;SDS011;48643;51.670;5.808;2023-05-10T04:24:56;16.17;;;10.05;;
62584;SDS011;48643;51.670;5.808;2023-05-10T04:27:22;18.75;;;10.57;;
62584;SDS011;48643;51.670;5.808;2023-05-10T04:29:49;18.10;;;10.80;;
62584;SDS011;48643;51.670;5.808;2023-05-10T04:32:16;19.85;;;11.00;;
62584;SDS011;48643;51.670;5.808;2023-05-10T04:34:43;23.67;;;11.05;;
62584;SDS011;48643;51.670;5.808;2023-05-10T04:37:10;18.65;;;10.73;;
62584;SDS011;48643;51.670;5.808;2023-05-10T04:39:37;18.17;;;10.32;;
62584;SDS011;48643;51.670;5.808;2023-05-10T04:42:07;15.68;;;9.63;;
62584;SDS011;48643;51.670;5.808;2023-05-10T04:44:34;16.33;;;9.57;;
62584;SDS011;48643;51.670;5.808;2023-05-10T04:47:01;18.55;;;10.40;;
62584;SDS011;48643;51.670;5.808;2023-05-10T04:49:29;16.02;;;10.27;;
62584;SDS011;48643;51.670;5.808;2023-05-10T04:51:56;19.08;;;10.50;;
62584;SDS011;48643;51.670;5.808;2023-05-10T04:54:23;18.38;;;10.07;;
62584;SDS011;48643;51.670;5.808;2023-05-10T04:56:50;18.92;;;10.18;;
62584;SDS011;48643;51.670;5.808;2023-05-10T04:59:16;18.48;;;10.23;;
62584;SDS011;48643;51.670;5.808;2023-05-10T05:01:43;19.38;;;10.10;;
62584;SDS011;48643;51.670;5.808;2023-05-10T05:04:10;19.25;;;10.70;;
62584;SDS011;48643;51.670;5.808;2023-05-10T05:06:37;14.15;;;9.27;;
62584;SDS011;48643;51.670;5.808;2023-05-10T05:09:03;16.75;;;9.52;;
62584;SDS011;48643;51.670;5.808;2023-05-10T05:11:30;15.80;;;9.52;;
62584;SDS011;48643;51.670;5.808;2023-05-10T05:13:57;16.60;;;10.02;;
62584;SDS011;48643;51.670;5.808;2023-05-10T05:18:54;17.80;;;9.65;;
62584;SDS011;48643;51.670;5.808;2023-05-10T05:21:22;15.65;;;9.60;;
62584;SDS011;48643;51.670;5.808;2023-05-10T05:23:48;17.02;;;9.38;;
62584;SDS011;48643;51.670;5.808;2023-05-10T05:26:15;16.08;;;9.63;;
62584;SDS011;48643;51.670;5.808;2023-05-10T05:28:42;15.60;;;9.93;;
62584;SDS011;48643;51.670;5.808;2023-05-10T05:31:09;15.48;;;9.55;;
62584;SDS011;48643;51.670;5.808;2023-05-10T05:33:36;17.13;;;10.18;;
62584;SDS011;48643;51.670;5.808;2023-05-10T05:36:04;20.23;;;10.30;;
62584;SDS011;48643;51.670;5.808;2023-05-10T05:38:31;18.33;;;9.75;;
62584;SDS011;48643;51.670;5.808;2023-05-10T05:40:58;18.88;;;10.45;;
62584;SDS011;48643;51.670;5.808;2023-05-10T05:43:25;20.48;;;10.90;;
62584;SDS011;48643;51.670;5.808;2023-05-10T05:45:52;17.00;;;9.93;;
62584;SDS011;48643;51.670;5.808;2023-05-10T05:48:20;18.52;;;10.07;;
62584;SDS011;48643;51.670;5.808;2023-05-10T05:50:47;16.25;;;9.43;;
62584;SDS011;48643;51.670;5.808;2023-05-10T05:53:14;16.40;;;9.65;;
62584;SDS011;48643;51.670;5.808;2023-05-10T05:55:50;15.32;;;9.38;;
62584;SDS011;48643;51.670;5.808;2023-05-10T05:58:18;16.73;;;9.70;;
62584;SDS011;48643;51.670;5.808;2023-05-10T06:00:45;17.33;;;9.60;;
62584;SDS011;48643;51.670;5.808;2023-05-10T06:03:12;16.13;;;8.77;;
62584;SDS011;48643;51.670;5.808;2023-05-10T06:05:39;18.40;;;10.15;;
62584;SDS011;48643;51.670;5.808;2023-05-10T06:08:06;16.13;;;9.80;;
62584;SDS011;48643;51.670;5.808;2023-05-10T06:10:32;14.30;;;8.88;;
62584;SDS011;48643;51.670;5.808;2023-05-10T06:12:59;27.63;;;13.13;;
62584;SDS011;48643;51.670;5.808;2023-05-10T06:15:26;29.25;;;14.88;;
62584;SDS011;48643;51.670;5.808;2023-05-10T06:17:53;34.17;;;16.30;;
62584;SDS011;48643;51.670;5.808;2023-05-10T06:20:20;31.50;;;16.80;;
62584;SDS011;48643;51.670;5.808;2023-05-10T06:22:47;32.30;;;17.35;;
62584;SDS011;48643;51.670;5.808;2023-05-10T06:25:14;38.92;;;18.05;;
62584;SDS011;48643;51.670;5.808;2023-05-10T06:27:41;35.85;;;16.98;;
62584;SDS011;48643;51.670;5.808;2023-05-10T06:30:08;34.15;;;17.90;;
62584;SDS011;48643;51.670;5.808;2023-05-10T06:32:39;35.22;;;17.35;;
62584;SDS011;48643;51.670;5.808;2023-05-10T06:35:06;38.47;;;18.42;;
62584;SDS011;48643;51.670;5.808;2023-05-10T06:37:33;32.00;;;16.90;;
62584;SDS011;48643;51.670;5.808;2023-05-10T06:40:00;30.60;;;17.23;;
62584;SDS011;48643;51.670;5.808;2023-05-10T06:42:28;33.85;;;17.85;;
62584;SDS011;48643;51.670;5.808;2023-05-10T06:44:55;34.55;;;16.98;;
62584;SDS011;48643;51.670;5.808;2023-05-10T06:47:22;36.45;;;17.58;;
62584;SDS011;48643;51.670;5.808;2023-05-10T06:49:48;36.35;;;17.38;;
62584;SDS011;48643;51.670;5.808;2023-05-10T06:52:15;34.28;;;16.83;;
62584;SDS011;48643;51.670;5.808;2023-05-10T06:54:42;30.27;;;16.13;;
62584;SDS011;48643;51.670;5.808;2023-05-10T06:57:09;34.97;;;16.60;;
62584;SDS011;48643;51.670;5.808;2023-05-10T06:59:56;28.98;;;15.70;;
62584;SDS011;48643;51.670;5.808;2023-05-10T07:02:23;27.20;;;14.38;;
62584;SDS011;48643;51.670;5.808;2023-05-10T07:04:50;24.70;;;14.90;;
62584;SDS011;48643;51.670;5.808;2023-05-10T07:07:18;25.55;;;14.27;;
62584;SDS011;48643;51.670;5.808;2023-05-10T07:09:45;25.73;;;14.18;;
62584;SDS011;48643;51.670;5.808;2023-05-10T07:12:12;30.33;;;14.38;;
62584;SDS011;48643;51.670;5.808;2023-05-10T07:14:41;24.83;;;13.18;;
62584;SDS011;48643;51.670;5.808;2023-05-10T07:17:08;30.05;;;14.60;;
62584;SDS011;48643;51.670;5.808;2023-05-10T07:19:36;29.52;;;14.43;;
62584;SDS011;48643;51.670;5.808;2023-05-10T07:22:03;29.95;;;14.35;;
62584;SDS011;48643;51.670;5.808;2023-05-10T07:24:30;25.52;;;13.50;;
62584;SDS011;48643;51.670;5.808;2023-05-10T07:26:58;23.75;;;12.73;;
62584;SDS011;48643;51.670;5.808;2023-05-10T07:29:25;26.75;;;12.93;;
62584;SDS011;48643;51.670;5.808;2023-05-10T07:31:52;26.08;;;12.00;;
62584;SDS011;48643;51.670;5.808;2023-05-10T07:34:21;23.05;;;12.48;;
62584;SDS011;48643;51.670;5.808;2023-05-10T07:36:48;22.85;;;11.07;;
62584;SDS011;48643;51.670;5.808;2023-05-10T07:39:15;24.88;;;11.38;;
62584;SDS011;48643;51.670;5.808;2023-05-10T07:41:52;27.20;;;11.10;;
62584;SDS011;48643;51.670;5.808;2023-05-10T07:44:19;23.65;;;11.38;;
62584;SDS011;48643;51.670;5.808;2023-05-10T07:46:46;18.08;;;9.85;;
62584;SDS011;48643;51.670;5.808;2023-05-10T07:49:13;19.98;;;11.30;;
62584;SDS011;48643;51.670;5.808;2023-05-10T07:51:40;18.52;;;10.45;;
62584;SDS011;48643;51.670;5.808;2023-05-10T07:54:08;21.05;;;10.35;;
62584;SDS011;48643;51.670;5.808;2023-05-10T07:56:35;17.63;;;10.20;;
62584;SDS011;48643;51.670;5.808;2023-05-10T07:59:02;23.50;;;10.88;;
62584;SDS011;48643;51.670;5.808;2023-05-10T08:01:30;19.25;;;10.05;;
62584;SDS011;48643;51.670;5.808;2023-05-10T08:03:58;17.83;;;9.30;;
62584;SDS011;48643;51.670;5.808;2023-05-10T08:06:26;18.80;;;9.90;;
62584;SDS011;48643;51.670;5.808;2023-05-10T08:08:54;16.98;;;9.48;;
62584;SDS011;48643;51.670;5.808;2023-05-10T08:11:21;22.52;;;10.57;;
62584;SDS011;48643;51.670;5.808;2023-05-10T08:13:49;20.10;;;10.75;;
62584;SDS011;48643;51.670;5.808;2023-05-10T08:16:17;17.67;;;9.90;;
62584;SDS011;48643;51.670;5.808;2023-05-10T08:18:45;21.27;;;9.80;;
62584;SDS011;48643;51.670;5.808;2023-05-10T08:23:41;18.60;;;9.20;;
62584;SDS011;48643;51.670;5.808;2023-05-10T08:26:10;15.93;;;9.43;;
62584;SDS011;48643;51.670;5.808;2023-05-10T08:28:37;16.48;;;8.75;;
62584;SDS011;48643;51.670;5.808;2023-05-10T08:31:04;16.52;;;9.18;;
62584;SDS011;48643;51.670;5.808;2023-05-10T08:33:32;19.80;;;8.80;;
62584;SDS011;48643;51.670;5.808;2023-05-10T08:35:59;15.32;;;9.25;;
62584;SDS011;48643;51.670;5.808;2023-05-10T08:38:26;17.15;;;9.23;;
62584;SDS011;48643;51.670;5.808;2023-05-10T08:40:53;18.17;;;8.82;;
62584;SDS011;48643;51.670;5.808;2023-05-10T08:43:28;15.35;;;9.38;;
62584;SDS011;48643;51.670;5.808;2023-05-10T08:45:59;19.17;;;8.93;;
62584;SDS011;48643;51.670;5.808;2023-05-10T08:48:29;17.52;;;8.75;;
62584;SDS011;48643;51.670;5.808;2023-05-10T08:50:58;16.50;;;9.43;;
62584;SDS011;48643;51.670;5.808;2023-05-10T08:53:26;18.25;;;8.60;;
62584;SDS011;48643;51.670;5.808;2023-05-10T08:55:53;13.88;;;8.48;;
62584;SDS011;48643;51.670;5.808;2023-05-10T08:58:21;14.75;;;8.60;;
62584;SDS011;48643;51.670;5.808;2023-05-10T09:00:49;16.95;;;8.35;;
62584;SDS011;48643;51.670;5.808;2023-05-10T09:03:19;13.65;;;7.35;;
62584;SDS011;48643;51.670;5.808;2023-05-10T09:05:46;18.00;;;8.00;;
62584;SDS011;48643;51.670;5.808;2023-05-10T09:08:14;11.70;;;7.32;;
62584;SDS011;48643;51.670;5.808;2023-05-10T09:10:44;14.60;;;7.95;;
62584;SDS011;48643;51.670;5.808;2023-05-10T09:15:41;13.10;;;7.50;;
62584;SDS011;48643;51.670;5.808;2023-05-10T09:18:10;16.00;;;8.07;;
62584;SDS011;48643;51.670;5.808;2023-05-10T09:20:37;11.75;;;7.47;;
62584;SDS011;48643;51.670;5.808;2023-05-10T09:23:04;13.98;;;8.25;;
62584;SDS011;48643;51.670;5.808;2023-05-10T09:25:31;14.10;;;8.27;;
62584;SDS011;48643;51.670;5.808;2023-05-10T09:28:02;14.25;;;7.72;;
62584;SDS011;48643;51.670;5.808;2023-05-10T09:30:32;11.63;;;6.97;;
62584;SDS011;48643;51.670;5.808;2023-05-10T09:32:59;12.73;;;7.07;;
62584;SDS011;48643;51.670;5.808;2023-05-10T09:35:28;12.73;;;7.90;;
62584;SDS011;48643;51.670;5.808;2023-05-10T09:37:57;14.43;;;8.40;;
62584;SDS011;48643;51.670;5.808;2023-05-10T09:40:27;14.88;;;8.05;;
62584;SDS011;48643;51.670;5.808;2023-05-10T09:42:55;12.50;;;7.97;;
62584;SDS011;48643;51.670;5.808;2023-05-10T09:45:25;15.02;;;7.55;;
62584;SDS011;48643;51.670;5.808;2023-05-10T09:47:53;11.95;;;6.90;;
62584;SDS011;48643;51.670;5.808;2023-05-10T09:50:21;14.23;;;6.63;;
62584;SDS011;48643;51.670;5.808;2023-05-10T09:55:20;10.18;;;6.78;;
62584;SDS011;48643;51.670;5.808;2023-05-10T09:57:48;12.50;;;7.47;;
62584;SDS011;48643;51.670;5.808;2023-05-10T10:00:17;13.10;;;6.70;;
62584;SDS011;48643;51.670;5.808;2023-05-10T10:02:53;10.25;;;6.60;;
62584;SDS011;48643;51.670;5.808;2023-05-10T10:05:27;13.38;;;6.80;;
62584;SDS011;48643;51.670;5.808;2023-05-10T10:07:58;10.43;;;6.63;;
62584;SDS011;48643;51.670;5.808;2023-05-10T10:10:26;13.27;;;7.38;;
62584;SDS011;48643;51.670;5.808;2023-05-10T10:12:54;14.18;;;7.43;;
62584;SDS011;48643;51.670;5.808;2023-05-10T10:15:22;13.32;;;7.35;;
62584;SDS011;48643;51.670;5.808;2023-05-10T10:17:50;19.13;;;11.23;;
62584;SDS011;48643;51.670;5.808;2023-05-10T10:20:18;21.08;;;12.15;;
62584;SDS011;48643;51.670;5.808;2023-05-10T10:22:46;26.23;;;13.38;;
62584;SDS011;48643;51.670;5.808;2023-05-10T10:25:17;20.52;;;12.90;;
62584;SDS011;48643;51.670;5.808;2023-05-10T10:35:54;18.58;;;11.02;;
62584;SDS011;48643;51.670;5.808;2023-05-10T10:38:22;28.98;;;12.35;;
62584;SDS011;48643;51.670;5.808;2023-05-10T10:40:49;22.85;;;11.98;;
62584;SDS011;48643;51.670;5.808;2023-05-10T10:43:29;20.95;;;11.38;;
62584;SDS011;48643;51.670;5.808;2023-05-10T10:46:15;28.35;;;10.95;;
62584;SDS011;48643;51.670;5.808;2023-05-10T10:48:47;22.02;;;10.38;;
62584;SDS011;48643;51.670;5.808;2023-05-10T10:51:15;18.02;;;10.68;;
62584;SDS011;48643;51.670;5.808;2023-05-10T10:53:42;17.55;;;10.02;;
62584;SDS011;48643;51.670;5.808;2023-05-10T10:56:10;19.60;;;9.77;;
62584;SDS011;48643;51.670;5.808;2023-05-10T10:58:39;19.13;;;10.48;;
62584;SDS011;48643;51.670;5.808;2023-05-10T11:01:11;18.50;;;10.63;;
62584;SDS011;48643;51.670;5.808;2023-05-10T11:03:55;17.10;;;10.43;;
62584;SDS011;48643;51.670;5.808;2023-05-10T11:06:32;22.77;;;10.82;;
62584;SDS011;48643;51.670;5.808;2023-05-10T11:09:06;19.95;;;10.40;;
62584;SDS011;48643;51.670;5.808;2023-05-10T11:11:34;14.32;;;10.13;;
62584;SDS011;48643;51.670;5.808;2023-05-10T11:14:02;19.75;;;10.73;;
62584;SDS011;48643;51.670;5.808;2023-05-10T11:19:11;16.77;;;9.48;;
62584;SDS011;48643;51.670;5.808;2023-05-10T11:21:47;16.23;;;9.45;;
62584;SDS011;48643;51.670;5.808;2023-05-10T11:24:18;15.85;;;9.18;;
62584;SDS011;48643;51.670;5.808;2023-05-10T11:26:51;16.77;;;9.15;;
62584;SDS011;48643;51.670;5.808;2023-05-10T11:29:20;17.27;;;10.50;;
62584;SDS011;48643;51.670;5.808;2023-05-10T11:31:47;20.75;;;11.07;;
62584;SDS011;48643;51.670;5.808;2023-05-10T11:36:54;15.25;;;8.82;;
62584;SDS011;48643;51.670;5.808;2023-05-10T11:39:24;13.80;;;8.20;;
62584;SDS011;48643;51.670;5.808;2023-05-10T11:41:56;14.80;;;8.27;;
62584;SDS011;48643;51.670;5.808;2023-05-10T11:44:28;13.77;;;8.05;;
62584;SDS011;48643;51.670;5.808;2023-05-10T11:46:59;14.00;;;7.85;;
62584;SDS011;48643;51.670;5.808;2023-05-10T11:49:29;12.45;;;7.40;;
62584;SDS011;48643;51.670;5.808;2023-05-10T11:52:06;11.88;;;7.30;;
62584;SDS011;48643;51.670;5.808;2023-05-10T11:54:33;12.43;;;6.72;;
62584;SDS011;48643;51.670;5.808;2023-05-10T11:57:03;12.75;;;7.28;;
62584;SDS011;48643;51.670;5.808;2023-05-10T11:59:30;16.25;;;8.80;;
62584;SDS011;48643;51.670;5.808;2023-05-10T12:01:57;17.83;;;8.88;;
62584;SDS011;48643;51.670;5.808;2023-05-10T12:04:24;14.00;;;7.97;;
62584;SDS011;48643;51.670;5.808;2023-05-10T12:06:51;11.27;;;7.68;;
62584;SDS011;48643;51.670;5.808;2023-05-10T12:09:18;13.85;;;8.65;;
62584;SDS011;48643;51.670;5.808;2023-05-10T12:12:05;14.52;;;8.70;;
62584;SDS011;48643;51.670;5.808;2023-05-10T12:14:33;11.68;;;7.93;;
62584;SDS011;48643;51.670;5.808;2023-05-10T12:17:01;13.48;;;7.38;;
62584;SDS011;48643;51.670;5.808;2023-05-10T12:19:36;14.30;;;6.40;;
62584;SDS011;48643;51.670;5.808;2023-05-10T12:22:05;16.95;;;6.47;;
62584;SDS011;48643;51.670;5.808;2023-05-10T12:24:36;10.82;;;6.00;;
62584;SDS011;48643;51.670;5.808;2023-05-10T12:27:05;12.38;;;6.75;;
62584;SDS011;48643;51.670;5.808;2023-05-10T12:29:34;11.52;;;7.57;;
62584;SDS011;48643;51.670;5.808;2023-05-10T12:32:01;11.13;;;7.35;;
62584;SDS011;48643;51.670;5.808;2023-05-10T12:34:35;10.63;;;6.95;;
62584;SDS011;48643;51.670;5.808;2023-05-10T12:37:03;11.25;;;6.85;;
62584;SDS011;48643;51.670;5.808;2023-05-10T12:39:43;14.93;;;7.50;;
62584;SDS011;48643;51.670;5.808;2023-05-10T12:42:11;14.45;;;8.23;;
62584;SDS011;48643;51.670;5.808;2023-05-10T12:44:38;15.68;;;7.97;;
62584;SDS011;48643;51.670;5.808;2023-05-10T12:47:06;13.25;;;8.27;;
62584;SDS011;48643;51.670;5.808;2023-05-10T12:49:33;12.70;;;8.05;;
62584;SDS011;48643;51.670;5.808;2023-05-10T12:52:00;14.52;;;7.85;;
62584;SDS011;48643;51.670;5.808;2023-05-10T12:54:27;11.13;;;7.55;;
62584;SDS011;48643;51.670;5.808;2023-05-10T12:56:54;15.15;;;8.05;;
62584;SDS011;48643;51.670;5.808;2023-05-10T12:59:21;11.88;;;7.28;;
62584;SDS011;48643;51.670;5.808;2023-05-10T13:01:49;9.82;;;6.53;;
62584;SDS011;48643;51.670;5.808;2023-05-10T13:04:16;9.85;;;6.28;;
62584;SDS011;48643;51.670;5.808;2023-05-10T13:06:43;10.77;;;6.13;;
62584;SDS011;48643;51.670;5.808;2023-05-10T13:09:10;8.48;;;6.13;;
62584;SDS011;48643;51.670;5.808;2023-05-10T13:11:37;11.07;;;5.80;;
62584;SDS011;48643;51.670;5.808;2023-05-10T13:14:04;12.13;;;6.20;;
62584;SDS011;48643;51.670;5.808;2023-05-10T13:16:31;9.07;;;5.70;;
62584;SDS011;48643;51.670;5.808;2023-05-10T13:18:58;7.50;;;5.20;;
62584;SDS011;48643;51.670;5.808;2023-05-10T13:21:25;9.15;;;5.40;;
62584;SDS011;48643;51.670;5.808;2023-05-10T13:23:54;8.68;;;5.40;;
62584;SDS011;48643;51.670;5.808;2023-05-10T13:26:21;10.40;;;5.47;;
62584;SDS011;48643;51.670;5.808;2023-05-10T13:28:48;8.13;;;5.35;;
62584;SDS011;48643;51.670;5.808;2023-05-10T13:31:18;7.78;;;4.90;;
62584;SDS011;48643;51.670;5.808;2023-05-10T13:33:45;7.88;;;5.05;;
62584;SDS011;48643;51.670;5.808;2023-05-10T13:36:12;6.65;;;4.30;;
62584;SDS011;48643;51.670;5.808;2023-05-10T13:38:39;9.32;;;5.32;;
62584;SDS011;48643;51.670;5.808;2023-05-10T13:41:06;7.75;;;4.80;;
62584;SDS011;48643;51.670;5.808;2023-05-10T13:43:32;6.47;;;4.53;;
62584;SDS011;48643;51.670;5.808;2023-05-10T13:45:59;9.55;;;5.00;;
62584;SDS011;48643;51.670;5.808;2023-05-10T13:48:26;8.60;;;4.63;;
62584;SDS011;48643;51.670;5.808;2023-05-10T13:50:53;8.93;;;4.40;;
62584;SDS011;48643;51.670;5.808;2023-05-10T13:53:20;5.25;;;3.95;;
62584;SDS011;48643;51.670;5.808;2023-05-10T13:55:47;5.78;;;4.22;;
62584;SDS011;48643;51.670;5.808;2023-05-10T13:58:14;7.00;;;4.20;;
62584;SDS011;48643;51.670;5.808;2023-05-10T14:00:41;7.20;;;4.45;;
62584;SDS011;48643;51.670;5.808;2023-05-10T14:03:07;6.07;;;4.20;;
62584;SDS011;48643;51.670;5.808;2023-05-10T14:05:37;7.55;;;4.47;;
62584;SDS011;48643;51.670;5.808;2023-05-10T14:08:04;5.55;;;4.00;;
62584;SDS011;48643;51.670;5.808;2023-05-10T14:10:31;5.88;;;3.70;;
62584;SDS011;48643;51.670;5.808;2023-05-10T14:12:58;6.22;;;3.70;;
62584;SDS011;48643;51.670;5.808;2023-05-10T14:15:25;5.45;;;3.60;;
62584;SDS011;48643;51.670;5.808;2023-05-10T14:17:52;5.10;;;3.53;;
62584;SDS011;48643;51.670;5.808;2023-05-10T14:20:18;4.63;;;3.20;;
62584;SDS011;48643;51.670;5.808;2023-05-10T14:22:45;6.15;;;3.33;;
62584;SDS011;48643;51.670;5.808;2023-05-10T14:25:13;6.88;;;3.50;;
62584;SDS011;48643;51.670;5.808;2023-05-10T14:27:41;4.35;;;2.83;;
62584;SDS011;48643;51.670;5.808;2023-05-10T14:30:08;4.10;;;3.00;;
62584;SDS011;48643;51.670;5.808;2023-05-10T14:32:35;8.45;;;3.25;;
62584;SDS011;48643;51.670;5.808;2023-05-10T14:35:03;7.25;;;3.30;;
62584;SDS011;48643;51.670;5.808;2023-05-10T14:37:31;9.38;;;3.50;;
62584;SDS011;48643;51.670;5.808;2023-05-10T14:39:58;4.43;;;3.00;;
62584;SDS011;48643;51.670;5.808;2023-05-10T14:42:25;5.78;;;3.00;;
62584;SDS011;48643;51.670;5.808;2023-05-10T14:44:53;5.18;;;3.05;;
62584;SDS011;48643;51.670;5.808;2023-05-10T14:47:20;5.80;;;2.83;;
62584;SDS011;48643;51.670;5.808;2023-05-10T14:49:47;3.67;;;2.42;;
62584;SDS011;48643;51.670;5.808;2023-05-10T14:52:14;5.68;;;2.75;;
62584;SDS011;48643;51.670;5.808;2023-05-10T14:54:41;3.38;;;2.75;;
62584;SDS011;48643;51.670;5.808;2023-05-10T14:57:08;4.50;;;2.85;;
62584;SDS011;48643;51.670;5.808;2023-05-10T14:59:35;6.35;;;3.00;;
62584;SDS011;48643;51.670;5.808;2023-05-10T15:02:02;5.68;;;3.30;;
62584;SDS011;48643;51.670;5.808;2023-05-10T15:04:30;5.25;;;3.90;;
62584;SDS011;48643;51.670;5.808;2023-05-10T15:06:57;7.88;;;4.55;;
62584;SDS011;48643;51.670;5.808;2023-05-10T15:09:25;5.53;;;4.28;;
62584;SDS011;48643;51.670;5.808;2023-05-10T15:11:54;5.67;;;3.27;;
62584;SDS011;48643;51.670;5.808;2023-05-10T15:14:22;10.30;;;3.50;;
62584;SDS011;48643;51.670;5.808;2023-05-10T15:16:49;6.00;;;3.53;;
62584;SDS011;48643;51.670;5.808;2023-05-10T15:19:16;8.18;;;3.13;;
62584;SDS011;48643;51.670;5.808;2023-05-10T15:21:43;4.35;;;2.90;;
62584;SDS011;48643;51.670;5.808;2023-05-10T15:24:11;7.20;;;2.80;;
62584;SDS011;48643;51.670;5.808;2023-05-10T15:26:38;3.92;;;2.75;;
62584;SDS011;48643;51.670;5.808;2023-05-10T15:29:05;5.78;;;3.00;;
62584;SDS011;48643;51.670;5.808;2023-05-10T15:31:31;7.00;;;2.97;;